Terminal Aerodrome Forecast
Issued by NWS Charleston, WV

Home | Current Version | Previous Version | Text Only | Print | Product List | Glossary On
Versions: 1 2 3 4 5 6 7 8 9 10 11 12 13 14 15 16 17 18 19 20 21
000
FTUS41 KRLX 061700
TAFCRW
TAF
KCRW 061739Z 0618/0718 VRB03KT P6SM SCT060
     FM061900 VRB03KT P6SM BKN060
     FM070000 00000KT P6SM SCT080
     FM070900 00000KT 4SM BR SCT080
     FM071300 00000KT 6SM HZ SCT080
     FM071500 11004KT P6SM BKN045=

USA.gov is the U.S. government's official web portal to all federal, state and local government web resources and services.